Time;durP1;ratioP1;P1;durP2;ratioP2;P2;SDS_P1;SDS_P2;PMS_P1;PMS_P2;Temp;Humidity;BMP_temperature;BMP_pressure;BME280_temperature;BME280_humidity;BME280_pressure;Samples;Min_cycle;Max_cycle;Signal;HPM_P1;HPM_P2
2021/05/23 00:00:35;;;;;;;6.43;1.38;;;;;;;;;;5055050;28;20045;-73
2021/05/23 00:03:04;;;;;;;5.80;1.30;;;;;;;;;;5055286;28;20040;-73
2021/05/23 00:05:31;;;;;;;5.13;1.30;;;;;;;;;;5054075;28;20122;-73
2021/05/23 00:08:00;;;;;;;8.70;1.40;;;;;;;;;;5055088;28;20021;-73
2021/05/23 00:10:27;;;;;;;4.57;1.38;;;;;;;;;;5054250;28;20064;-73
2021/05/23 00:12:55;;;;;;;6.20;1.23;;;;;;;;;;5055612;28;20082;-73
2021/05/23 00:15:23;;;;;;;8.10;1.45;;;;;;;;;;5054785;28;20390;-73
2021/05/23 00:17:50;;;;;;;4.47;1.70;;;;;;;;;;5054436;28;20020;-73
2021/05/23 00:20:16;;;;;;;9.88;2.10;;;;;;;;;;5054938;28;20052;-73
2021/05/23 00:22:42;;;;;;;4.93;1.80;;;;;;;;;;5054729;28;20053;-73
2021/05/23 00:25:09;;;;;;;8.45;2.08;;;;;;;;;;5054807;28;20501;-73
2021/05/23 00:27:35;;;;;;;15.60;2.75;;;;;;;;;;5054785;28;20029;-73
2021/05/23 00:30:02;;;;;;;7.65;1.80;;;;;;;;;;5054339;28;20021;-73
2021/05/23 00:32:28;;;;;;;7.68;1.58;;;;;;;;;;5054719;28;20494;-74
2021/05/23 00:34:55;;;;;;;12.57;2.17;;;;;;;;;;5054724;28;20462;-73
2021/05/23 00:37:25;;;;;;;8.18;1.90;;;;;;;;;;5054557;28;20075;-73
2021/05/23 00:39:52;;;;;;;13.05;3.00;;;;;;;;;;5054379;28;20020;-73
2021/05/23 00:42:18;;;;;;;5.50;1.27;;;;;;;;;;5053355;28;20044;-73
2021/05/23 00:44:44;;;;;;;5.63;1.50;;;;;;;;;;5054003;28;20056;-72
2021/05/23 00:47:11;;;;;;;4.90;1.33;;;;;;;;;;5056755;28;20029;-72
2021/05/23 00:49:37;;;;;;;6.75;1.50;;;;;;;;;;5054388;28;20025;-72
2021/05/23 00:52:07;;;;;;;10.52;1.75;;;;;;;;;;5054125;28;20078;-73
2021/05/23 00:54:33;;;;;;;;;;;;;;;;;;5054801;28;20024;-72
2021/05/23 00:57:00;;;;;;;6.50;2.13;;;;;;;;;;5054194;28;19944;-72
2021/05/23 00:59:26;;;;;;;7.68;1.52;;;;;;;;;;5054219;28;20415;-73
2021/05/23 01:01:56;;;;;;;7.38;1.63;;;;;;;;;;5053605;28;20046;-73
2021/05/23 01:04:23;;;;;;;8.00;1.80;;;;;;;;;;5054343;28;20031;-72
2021/05/23 01:06:50;;;;;;;8.65;1.80;;;;;;;;;;5054238;28;20029;-73
2021/05/23 01:09:16;;;;;;;9.38;1.85;;;;;;;;;;5053363;28;20037;-73
2021/05/23 01:11:42;;;;;;;10.98;1.70;;;;;;;;;;5053743;28;20071;-73
2021/05/23 01:14:24;;;;;;;7.05;1.67;;;;;;;;;;5054149;28;20032;-73
2021/05/23 01:16:51;;;;;;;7.63;1.45;;;;;;;;;;5054108;28;20025;-73
2021/05/23 01:19:22;;;;;;;7.55;1.80;;;;;;;;;;5053299;28;20048;-73
2021/05/23 01:21:59;;;;;;;6.57;1.67;;;;;;;;;;5053603;28;20029;-73
2021/05/23 01:24:35;;;;;;;8.93;2.03;;;;;;;;;;5052897;28;20071;-73
2021/05/23 01:27:01;;;;;;;8.45;1.90;;;;;;;;;;5053724;28;20379;-72
2021/05/23 01:29:29;;;;;;;4.25;1.70;;;;;;;;;;5051766;28;20029;-72
2021/05/23 01:31:56;;;;;;;5.70;1.20;;;;;;;;;;5053128;28;20524;-73
2021/05/23 01:34:23;;;;;;;4.47;1.42;;;;;;;;;;5053537;28;20029;-73
2021/05/23 01:36:51;;;;;;;7.20;1.58;;;;;;;;;;5053600;28;20028;-73
2021/05/23 01:39:17;;;;;;;7.18;1.60;;;;;;;;;;5051569;28;20025;-73
2021/05/23 01:41:44;;;;;;;10.60;2.97;;;;;;;;;;5053379;28;20021;-73
2021/05/23 01:44:11;;;;;;;7.03;1.30;;;;;;;;;;5053403;28;20033;-73
2021/05/23 01:46:39;;;;;;;6.32;1.13;;;;;;;;;;5053358;28;20021;-73
2021/05/23 01:49:05;;;;;;;11.07;1.65;;;;;;;;;;5051972;28;20040;-72
2021/05/23 01:51:32;;;;;;;9.07;1.83;;;;;;;;;;5053323;28;20020;-72
2021/05/23 01:54:01;;;;;;;8.18;1.70;;;;;;;;;;5053093;28;20052;-72
2021/05/23 01:56:27;;;;;;;5.57;1.45;;;;;;;;;;5051925;28;20110;-72
2021/05/23 01:58:54;;;;;;;7.50;1.77;;;;;;;;;;5052734;28;20029;-72
2021/05/23 02:01:20;;;;;;;7.80;1.63;;;;;;;;;;5055467;28;20609;-73
2021/05/23 02:03:47;;;;;;;7.80;1.60;;;;;;;;;;5052994;28;20067;-73
2021/05/23 02:06:13;;;;;;;9.93;1.95;;;;;;;;;;5053100;28;20435;-72
2021/05/23 02:08:41;;;;;;;9.38;1.83;;;;;;;;;;5052785;28;20017;-73
2021/05/23 02:11:08;;;;;;;5.45;2.33;;;;;;;;;;5052841;28;20021;-73
2021/05/23 02:13:35;;;;;;;9.40;1.92;;;;;;;;;;5051642;28;20063;-73
2021/05/23 02:16:02;;;;;;;10.40;1.75;;;;;;;;;;5052580;28;20043;-73
2021/05/23 02:18:30;;;;;;;10.80;1.67;;;;;;;;;;5051395;28;20029;-71
2021/05/23 02:20:56;;;;;;;5.75;1.63;;;;;;;;;;5052804;28;20021;-72
2021/05/23 02:23:23;;;;;;;7.20;1.60;;;;;;;;;;5052737;28;20025;-72
2021/05/23 02:25:51;;;;;;;6.55;1.85;;;;;;;;;;5052462;28;20036;-72
2021/05/23 02:28:18;;;;;;;6.97;1.60;;;;;;;;;;5051716;28;20044;-71
2021/05/23 02:30:45;;;;;;;8.20;1.75;;;;;;;;;;5051690;28;20043;-73
2021/05/23 02:33:12;;;;;;;10.68;2.05;;;;;;;;;;5060834;28;20426;-73
2021/05/23 02:35:40;;;;;;;4.75;1.40;;;;;;;;;;5053046;28;20025;-73
2021/05/23 02:38:07;;;;;;;5.28;1.70;;;;;;;;;;5051737;28;20029;-72
2021/05/23 02:40:34;;;;;;;11.10;1.83;;;;;;;;;;5052657;28;20104;-73
2021/05/23 02:43:02;;;;;;;6.28;1.38;;;;;;;;;;5052139;28;20031;-73
2021/05/23 02:45:28;;;;;;;5.53;2.72;;;;;;;;;;5052596;28;20031;-74
2021/05/23 02:47:55;;;;;;;10.70;1.77;;;;;;;;;;5052252;28;20424;-73
2021/05/23 02:50:26;;;;;;;12.73;1.95;;;;;;;;;;5052258;28;20029;-71
2021/05/23 02:52:52;;;;;;;8.05;1.60;;;;;;;;;;5057546;28;20028;-72
2021/05/23 02:55:19;;;;;;;12.70;1.92;;;;;;;;;;5054984;28;20032;-73
2021/05/23 02:57:46;;;;;;;6.70;1.50;;;;;;;;;;5051779;28;20028;-73
2021/05/23 03:00:16;;;;;;;7.60;1.73;;;;;;;;;;5052043;28;20025;-73
2021/05/23 03:02:42;;;;;;;10.55;2.03;;;;;;;;;;5052099;28;20116;-72
2021/05/23 03:05:10;;;;;;;6.38;1.45;;;;;;;;;;5057387;28;20063;-72
2021/05/23 03:07:41;;;;;;;6.45;1.60;;;;;;;;;;5060969;28;20319;-72
2021/05/23 03:10:18;;;;;;;10.05;1.65;;;;;;;;;;5060842;28;20036;-73
2021/05/23 03:12:44;;;;;;;6.80;1.73;;;;;;;;;;5060399;28;20094;-72
2021/05/23 03:15:14;;;;;;;13.23;1.70;;;;;;;;;;5060766;28;20021;-73
2021/05/23 03:17:41;;;;;;;9.50;2.05;;;;;;;;;;5063095;28;20025;-73
2021/05/23 03:20:08;;;;;;;13.07;1.80;;;;;;;;;;5061307;28;20023;-73
2021/05/23 03:22:39;;;;;;;9.75;1.45;;;;;;;;;;5062806;28;20040;-73
2021/05/23 03:25:06;;;;;;;7.65;1.65;;;;;;;;;;5062056;28;20098;-73
2021/05/23 03:27:33;;;;;;;8.05;2.03;;;;;;;;;;5060288;28;20048;-72
2021/05/23 03:29:59;;;;;;;9.43;2.15;;;;;;;;;;5062235;28;20028;-73
2021/05/23 03:32:26;;;;;;;10.82;2.20;;;;;;;;;;5061997;28;20029;-73
2021/05/23 03:34:52;;;;;;;11.27;2.15;;;;;;;;;;5060448;28;20100;-73
2021/05/23 03:37:18;;;;;;;5.70;1.90;;;;;;;;;;5062095;28;20032;-73
2021/05/23 03:39:45;;;;;;;7.22;2.10;;;;;;;;;;5059997;28;20024;-73
2021/05/23 03:42:11;;;;;;;10.25;2.00;;;;;;;;;;5062448;28;20155;-73
2021/05/23 03:44:38;;;;;;;10.35;2.28;;;;;;;;;;5058289;28;20039;-73
2021/05/23 03:47:04;;;;;;;11.00;2.58;;;;;;;;;;5072706;28;20032;-73
2021/05/23 03:49:31;;;;;;;8.45;1.63;;;;;;;;;;5056442;28;20036;-74
2021/05/23 03:51:57;;;;;;;7.47;2.53;;;;;;;;;;5055157;28;20033;-74
2021/05/23 03:54:24;;;;;;;9.73;2.28;;;;;;;;;;5055520;28;20102;-74
2021/05/23 03:56:50;;;;;;;13.32;3.55;;;;;;;;;;5055428;28;20028;-73
2021/05/23 03:59:17;;;;;;;8.45;1.92;;;;;;;;;;5055074;28;20031;-74
2021/05/23 04:01:43;;;;;;;10.05;2.17;;;;;;;;;;5054890;28;20045;-75
2021/05/23 04:04:10;;;;;;;9.43;2.00;;;;;;;;;;5054043;28;20474;-73
2021/05/23 04:06:36;;;;;;;8.00;2.00;;;;;;;;;;5055389;28;20069;-74
2021/05/23 04:09:03;;;;;;;8.77;1.88;;;;;;;;;;5053831;28;20036;-74
2021/05/23 04:11:37;;;;;;;9.98;2.22;;;;;;;;;;5054921;28;20497;-74
2021/05/23 04:14:03;;;;;;;10.05;1.77;;;;;;;;;;5055081;28;20417;-74
2021/05/23 04:16:29;;;;;;;8.50;2.28;;;;;;;;;;5055245;28;20079;-74
2021/05/23 04:18:56;;;;;;;13.13;2.25;;;;;;;;;;5054292;28;20451;-74
2021/05/23 04:21:22;;;;;;;20.17;2.70;;;;;;;;;;5054814;28;20100;-74
2021/05/23 04:23:49;;;;;;;11.25;2.65;;;;;;;;;;5058113;28;20063;-73
2021/05/23 04:26:15;;;;;;;12.48;2.40;;;;;;;;;;5067990;28;20032;-73
2021/05/23 04:28:41;;;;;;;5.60;2.08;;;;;;;;;;5054135;28;20021;-73
2021/05/23 04:31:08;;;;;;;12.68;2.20;;;;;;;;;;5053336;28;20434;-73
2021/05/23 04:33:34;;;;;;;8.00;2.20;;;;;;;;;;5054779;28;20159;-73
2021/05/23 04:36:01;;;;;;;9.75;2.10;;;;;;;;;;5054542;28;20036;-74
2021/05/23 04:38:27;;;;;;;12.57;2.92;;;;;;;;;;5054346;28;20028;-74
2021/05/23 04:40:54;;;;;;;9.25;2.17;;;;;;;;;;5054398;28;20563;-73
2021/05/23 04:43:20;;;;;;;12.55;2.53;;;;;;;;;;5054671;28;20074;-74
2021/05/23 04:45:46;;;;;;;10.10;2.05;;;;;;;;;;5054558;28;20044;-73
2021/05/23 04:48:13;;;;;;;7.88;2.30;;;;;;;;;;5053805;28;20481;-74
2021/05/23 04:50:39;;;;;;;9.80;1.83;;;;;;;;;;5054173;28;20032;-74
2021/05/23 04:53:06;;;;;;;9.32;2.05;;;;;;;;;;5054403;28;20246;-74
2021/05/23 04:55:33;;;;;;;11.50;2.33;;;;;;;;;;5052993;28;20104;-74
2021/05/23 04:57:59;;;;;;;9.13;2.05;;;;;;;;;;5052591;28;20389;-74
2021/05/23 05:00:26;;;;;;;7.68;1.98;;;;;;;;;;5053726;28;20087;-75
2021/05/23 05:02:52;;;;;;;9.20;2.05;;;;;;;;;;5054117;28;20045;-74
2021/05/23 05:05:19;;;;;;;11.25;1.90;;;;;;;;;;5054191;28;20036;-74
2021/05/23 05:07:46;;;;;;;10.20;1.90;;;;;;;;;;5061943;28;20025;-74
2021/05/23 05:10:12;;;;;;;8.80;1.58;;;;;;;;;;5062439;28;20029;-74
2021/05/23 05:12:38;;;;;;;9.77;1.92;;;;;;;;;;5063966;28;20501;-73
2021/05/23 05:15:05;;;;;;;12.68;2.58;;;;;;;;;;5060867;28;20112;-73
2021/05/23 05:17:32;;;;;;;7.78;1.38;;;;;;;;;;5064529;28;20021;-74
2021/05/23 05:19:58;;;;;;;8.07;1.60;;;;;;;;;;5062491;28;20377;-73
2021/05/23 05:22:24;;;;;;;11.07;1.77;;;;;;;;;;5061854;28;20035;-74
2021/05/23 05:24:51;;;;;;;11.88;1.70;;;;;;;;;;5065281;28;20027;-73
2021/05/23 05:27:20;;;;;;;9.30;2.05;;;;;;;;;;5063028;28;20029;-73
2021/05/23 05:29:46;;;;;;;6.32;1.55;;;;;;;;;;5064805;28;20029;-72
2021/05/23 05:32:12;;;;;;;18.02;3.47;;;;;;;;;;5052452;28;20033;-72
2021/05/23 05:34:39;;;;;;;9.63;1.67;;;;;;;;;;5050758;28;20453;-73
2021/05/23 05:37:05;;;;;;;12.18;2.08;;;;;;;;;;5052183;28;20028;-73
2021/05/23 05:39:32;;;;;;;7.75;1.48;;;;;;;;;;5051782;28;20423;-74
2021/05/23 05:41:58;;;;;;;7.93;1.63;;;;;;;;;;5052060;28;20024;-73
2021/05/23 05:44:25;;;;;;;8.85;1.98;;;;;;;;;;5051971;28;20032;-73
2021/05/23 05:46:51;;;;;;;14.15;1.67;;;;;;;;;;5051947;28;20025;-74
2021/05/23 05:49:18;;;;;;;5.88;1.70;;;;;;;;;;5051458;28;20100;-74
2021/05/23 05:51:44;;;;;;;11.10;1.98;;;;;;;;;;5051881;28;20331;-73
2021/05/23 05:54:10;;;;;;;10.63;1.70;;;;;;;;;;5051630;28;20033;-73
2021/05/23 05:56:38;;;;;;;10.57;2.05;;;;;;;;;;5051137;28;20411;-75
2021/05/23 05:59:04;;;;;;;18.33;2.13;;;;;;;;;;5051411;28;20527;-73
2021/05/23 06:01:30;;;;;;;14.32;1.90;;;;;;;;;;5051424;28;20126;-75
2021/05/23 06:03:56;;;;;;;14.55;1.90;;;;;;;;;;5050365;28;20060;-74
2021/05/23 06:06:24;;;;;;;8.93;1.98;;;;;;;;;;5051421;28;20056;-74
2021/05/23 06:08:50;;;;;;;10.85;2.10;;;;;;;;;;5050297;28;20025;-74
2021/05/23 06:11:16;;;;;;;6.50;1.83;;;;;;;;;;5051518;28;20048;-74
2021/05/23 06:13:43;;;;;;;17.15;2.08;;;;;;;;;;5051540;28;20017;-74
2021/05/23 06:16:09;;;;;;;15.70;1.77;;;;;;;;;;5051347;28;20068;-75
2021/05/23 06:18:36;;;;;;;12.23;2.08;;;;;;;;;;5049780;28;20385;-73
2021/05/23 06:21:02;;;;;;;10.27;1.90;;;;;;;;;;5051471;28;20024;-74
2021/05/23 06:23:28;;;;;;;7.22;1.52;;;;;;;;;;5051329;28;20028;-74
2021/05/23 06:25:55;;;;;;;13.68;1.75;;;;;;;;;;5049963;28;20032;-76
2021/05/23 06:28:21;;;;;;;7.90;1.77;;;;;;;;;;5050673;28;20060;-74
2021/05/23 06:30:48;;;;;;;10.93;2.17;;;;;;;;;;5050835;28;20033;-74
2021/05/23 06:33:14;;;;;;;6.18;1.73;;;;;;;;;;5051246;28;20033;-73
2021/05/23 06:35:41;;;;;;;12.40;1.70;;;;;;;;;;5050989;28;20474;-75
2021/05/23 06:38:07;;;;;;;9.95;1.88;;;;;;;;;;5051111;28;20029;-74
2021/05/23 06:40:33;;;;;;;10.10;2.55;;;;;;;;;;5050847;28;20097;-74
2021/05/23 06:43:00;;;;;;;9.07;1.58;;;;;;;;;;5051052;28;20024;-74
2021/05/23 06:45:26;;;;;;;9.05;1.75;;;;;;;;;;5051074;28;20033;-74
2021/05/23 06:47:53;;;;;;;4.45;1.20;;;;;;;;;;5050322;28;20048;-74
2021/05/23 06:50:19;;;;;;;7.85;1.55;;;;;;;;;;5051834;28;20052;-75
2021/05/23 06:52:46;;;;;;;12.60;1.88;;;;;;;;;;5050585;28;20478;-74
2021/05/23 06:55:12;;;;;;;7.15;1.52;;;;;;;;;;5050931;28;20111;-73
2021/05/23 06:57:38;;;;;;;11.18;1.40;;;;;;;;;;5049469;28;20367;-74
2021/05/23 07:00:07;;;;;;;9.30;1.27;;;;;;;;;;5050916;28;20021;-73
2021/05/23 07:02:33;;;;;;;10.73;1.77;;;;;;;;;;5049368;28;20128;-73
2021/05/23 07:05:00;;;;;;;14.50;1.92;;;;;;;;;;5050483;28;20029;-72
2021/05/23 07:07:28;;;;;;;12.98;2.10;;;;;;;;;;5050795;28;20036;-74
2021/05/23 07:09:54;;;;;;;12.13;2.05;;;;;;;;;;5050487;28;20120;-73
2021/05/23 07:12:21;;;;;;;8.02;1.23;;;;;;;;;;5050830;28;20104;-74
2021/05/23 07:14:47;;;;;;;11.90;1.65;;;;;;;;;;5050766;28;20040;-74
2021/05/23 07:17:14;;;;;;;7.88;1.77;;;;;;;;;;5050804;28;20105;-74
2021/05/23 07:19:40;;;;;;;12.10;1.73;;;;;;;;;;5050433;28;20036;-73
2021/05/23 07:22:06;;;;;;;9.88;1.80;;;;;;;;;;5053472;28;20029;-74
2021/05/23 07:24:33;;;;;;;6.85;1.67;;;;;;;;;;5054785;28;20029;-77
2021/05/23 07:26:59;;;;;;;4.85;1.33;;;;;;;;;;5054811;28;20030;-76
2021/05/23 07:29:26;;;;;;;10.43;1.63;;;;;;;;;;5053142;28;20534;-77
2021/05/23 07:31:52;;;;;;;10.55;1.27;;;;;;;;;;5055153;28;20080;-77
2021/05/23 07:34:19;;;;;;;7.70;1.75;;;;;;;;;;5054488;28;20040;-75
2021/05/23 07:36:45;;;;;;;9.75;1.80;;;;;;;;;;5054568;28;20025;-76
2021/05/23 07:39:11;;;;;;;11.77;1.88;;;;;;;;;;5054527;28;20021;-76
2021/05/23 07:41:38;;;;;;;6.20;1.48;;;;;;;;;;5054264;28;20021;-76
2021/05/23 07:44:04;;;;;;;8.07;1.60;;;;;;;;;;5054448;28;20017;-76
2021/05/23 07:46:31;;;;;;;13.13;1.58;;;;;;;;;;5054306;28;20029;-75
2021/05/23 07:48:57;;;;;;;6.32;1.33;;;;;;;;;;5053584;28;20048;-77
2021/05/23 07:51:24;;;;;;;8.20;1.52;;;;;;;;;;5053749;28;20114;-75
2021/05/23 07:53:51;;;;;;;12.52;1.70;;;;;;;;;;5053024;28;20489;-76
2021/05/23 07:56:18;;;;;;;6.72;1.27;;;;;;;;;;5054201;28;20021;-77
2021/05/23 07:58:45;;;;;;;5.72;1.30;;;;;;;;;;5053553;28;20075;-77
2021/05/23 08:01:13;;;;;;;12.48;1.65;;;;;;;;;;5053968;28;20041;-78
2021/05/23 08:03:40;;;;;;;9.68;1.33;;;;;;;;;;5053772;28;20359;-76
2021/05/23 08:06:08;;;;;;;14.90;2.75;;;;;;;;;;5053733;28;20024;-75
2021/05/23 08:08:35;;;;;;;9.15;1.80;;;;;;;;;;5053941;28;20021;-75
2021/05/23 08:11:02;;;;;;;8.65;2.30;;;;;;;;;;5053988;28;20557;-77
2021/05/23 08:13:28;;;;;;;8.00;1.42;;;;;;;;;;5053927;28;20021;-75
2021/05/23 08:15:56;;;;;;;10.63;1.50;;;;;;;;;;5053591;28;20083;-74
2021/05/23 08:18:28;;;;;;;6.97;1.58;;;;;;;;;;5053778;28;20493;-74
2021/05/23 08:21:02;;;;;;;6.57;1.27;;;;;;;;;;5053804;28;20424;-74
2021/05/23 08:23:29;;;;;;;11.15;2.78;;;;;;;;;;5053775;28;20527;-74
2021/05/23 08:25:55;;;;;;;7.72;1.45;;;;;;;;;;5053289;28;20029;-75
2021/05/23 08:28:22;;;;;;;3.70;0.93;;;;;;;;;;5053506;28;20150;-74
2021/05/23 08:30:49;;;;;;;7.55;1.17;;;;;;;;;;5053374;28;20029;-74
2021/05/23 08:33:15;;;;;;;11.23;1.58;;;;;;;;;;5054251;28;20060;-74
2021/05/23 08:35:42;;;;;;;13.02;1.50;;;;;;;;;;5052127;28;20032;-75
2021/05/23 08:38:08;;;;;;;6.72;1.50;;;;;;;;;;5053125;28;20039;-73
2021/05/23 08:40:36;;;;;;;9.75;1.70;;;;;;;;;;5052506;28;20032;-75
2021/05/23 08:43:03;;;;;;;10.65;1.27;;;;;;;;;;5053654;28;20079;-73
2021/05/23 08:45:29;;;;;;;9.05;1.58;;;;;;;;;;5067335;28;20035;-73
2021/05/23 08:47:56;;;;;;;11.10;1.33;;;;;;;;;;5065633;28;20036;-74
2021/05/23 08:50:23;;;;;;;4.82;1.13;;;;;;;;;;5068900;28;20466;-74
2021/05/23 08:53:08;;;;;;;3.80;0.80;;;;;;;;;;5070635;28;20032;-73
2021/05/23 08:55:38;;;;;;;6.50;0.75;;;;;;;;;;5057477;28;20029;-73
2021/05/23 08:58:15;;;;;;;5.28;1.40;;;;;;;;;;5055327;28;20021;-73
2021/05/23 09:00:41;;;;;;;8.30;2.13;;;;;;;;;;5052513;28;20021;-73
2021/05/23 09:03:10;;;;;;;7.25;1.90;;;;;;;;;;5058201;28;20031;-72
2021/05/23 09:05:44;;;;;;;9.88;2.45;;;;;;;;;;5072894;28;20035;-71
2021/05/23 09:08:14;;;;;;;7.35;1.98;;;;;;;;;;5078283;28;20116;-71
2021/05/23 09:10:43;;;;;;;6.13;1.20;;;;;;;;;;5066815;28;20021;-72
2021/05/23 09:13:26;;;;;;;8.45;1.35;;;;;;;;;;5070001;28;20021;-74
2021/05/23 09:16:03;;;;;;;6.40;0.90;;;;;;;;;;5083818;28;20029;-75
2021/05/23 09:18:43;;;;;;;7.75;1.05;;;;;;;;;;5076237;28;20035;-72
2021/05/23 09:21:12;;;;;;;6.38;1.10;;;;;;;;;;5077127;28;20478;-72
2021/05/23 09:23:47;;;;;;;4.10;0.98;;;;;;;;;;5066644;28;20047;-74
2021/05/23 09:26:17;;;;;;;8.50;1.40;;;;;;;;;;5072619;28;20039;-73
2021/05/23 09:28:44;;;;;;;9.15;1.50;;;;;;;;;;5064120;28;20091;-71
2021/05/23 09:31:13;;;;;;;7.57;1.50;;;;;;;;;;5058210;28;20062;-74
2021/05/23 09:33:41;;;;;;;;;;;;;;;;;;5060954;28;20091;-72
2021/05/23 09:36:12;;;;;;;7.28;1.23;;;;;;;;;;5064887;28;19940;-77
2021/05/23 09:38:50;;;;;;;4.30;1.02;;;;;;;;;;5078415;28;20017;-70
2021/05/23 09:41:20;;;;;;;4.50;1.20;;;;;;;;;;5062673;28;20078;-74
2021/05/23 09:43:46;;;;;;;4.72;0.95;;;;;;;;;;5058339;28;20056;-74
2021/05/23 09:46:13;;;;;;;3.85;0.82;;;;;;;;;;5060604;28;20025;-72
2021/05/23 09:48:51;;;;;;;7.57;1.70;;;;;;;;;;5059722;28;20025;-72
2021/05/23 09:51:18;;;;;;;5.10;1.30;;;;;;;;;;5073485;28;20029;-71
2021/05/23 09:53:45;;;;;;;7.63;1.27;;;;;;;;;;5058711;28;20024;-72
2021/05/23 09:56:15;;;;;;;5.13;1.20;;;;;;;;;;5062676;28;20490;-72
2021/05/23 09:58:45;;;;;;;5.10;1.48;;;;;;;;;;5059049;28;20143;-73
2021/05/23 10:01:26;;;;;;;6.07;1.13;;;;;;;;;;5059844;28;20390;-72
2021/05/23 10:03:55;;;;;;;6.68;1.35;;;;;;;;;;5060228;28;20043;-72
2021/05/23 10:06:28;;;;;;;3.70;1.25;;;;;;;;;;5060271;28;20063;-72
2021/05/23 10:08:58;;;;;;;6.05;1.00;;;;;;;;;;5076599;28;20036;-73
2021/05/23 10:11:24;;;;;;;;;;;;;;;;;;5071050;28;20074;-75
2021/05/23 10:13:51;;;;;;;6.43;1.10;;;;;;;;;;5071295;28;19904;-73
2021/05/23 10:16:17;;;;;;;4.13;1.02;;;;;;;;;;5071163;28;20473;-73
2021/05/23 10:18:47;;;;;;;20.55;2.72;;;;;;;;;;5060508;28;20017;-67
2021/05/23 10:21:13;;;;;;;6.82;1.58;;;;;;;;;;5050817;28;20021;-68
2021/05/23 10:23:42;;;;;;;4.43;1.15;;;;;;;;;;5050866;28;20048;-67
2021/05/23 10:26:10;;;;;;;6.17;1.23;;;;;;;;;;5053012;28;20086;-69
2021/05/23 10:28:46;;;;;;;5.05;1.40;;;;;;;;;;5052881;28;20494;-68
2021/05/23 10:31:12;;;;;;;3.65;0.98;;;;;;;;;;5052417;28;20076;-67
2021/05/23 10:33:49;;;;;;;4.20;1.40;;;;;;;;;;5051427;28;20024;-67
2021/05/23 10:36:47;;;;;;;5.20;1.20;;;;;;;;;;5052482;28;20587;-70
2021/05/23 10:39:16;;;;;;;5.60;1.20;;;;;;;;;;5023677;28;20041;-69
2021/05/23 10:41:43;;;;;;;7.43;1.48;;;;;;;;;;5049143;28;20028;-69
2021/05/23 10:44:11;;;;;;;4.72;1.10;;;;;;;;;;5050850;28;20092;-69
2021/05/23 10:46:50;;;;;;;6.20;0.90;;;;;;;;;;5057485;28;20096;-69
2021/05/23 10:49:16;;;;;;;3.67;1.00;;;;;;;;;;5062539;28;20108;-70
2021/05/23 10:52:03;;;;;;;3.72;0.93;;;;;;;;;;5049899;28;20028;-69
2021/05/23 10:54:29;;;;;;;7.03;1.30;;;;;;;;;;5057997;28;20033;-70
2021/05/23 10:57:03;;;;;;;4.30;0.80;;;;;;;;;;5062386;28;20436;-69
2021/05/23 10:59:30;;;;;;;5.78;1.10;;;;;;;;;;5064511;28;20684;-70
2021/05/23 11:01:56;;;;;;;4.15;0.98;;;;;;;;;;5041451;28;20418;-69
2021/05/23 11:04:23;;;;;;;4.97;0.98;;;;;;;;;;5056603;28;20504;-75
2021/05/23 11:06:50;;;;;;;7.40;0.82;;;;;;;;;;5064463;28;20545;-74
2021/05/23 11:09:17;;;;;;;3.40;0.88;;;;;;;;;;5072128;28;20036;-72
2021/05/23 11:11:44;;;;;;;2.80;0.82;;;;;;;;;;5069820;28;20021;-74
2021/05/23 11:14:24;;;;;;;3.17;0.93;;;;;;;;;;5073853;28;20024;-75
2021/05/23 11:16:56;;;;;;;3.97;0.70;;;;;;;;;;5064577;28;20434;-74
2021/05/23 11:19:24;;;;;;;4.38;0.70;;;;;;;;;;5057843;28;20505;-71
2021/05/23 11:21:51;;;;;;;4.30;1.02;;;;;;;;;;5054247;28;20036;-74
2021/05/23 11:24:18;;;;;;;2.90;0.60;;;;;;;;;;5053834;28;20512;-74
2021/05/23 11:26:44;;;;;;;3.90;0.80;;;;;;;;;;5059822;28;20024;-74
2021/05/23 11:29:11;;;;;;;4.13;0.90;;;;;;;;;;5074056;28;20023;-74
2021/05/23 11:31:44;;;;;;;2.92;0.95;;;;;;;;;;5073627;28;20031;-72
2021/05/23 11:34:10;;;;;;;5.45;0.75;;;;;;;;;;5073551;28;20012;-72
2021/05/23 11:36:39;;;;;;;7.65;0.77;;;;;;;;;;5059100;28;20028;-71
2021/05/23 11:39:07;;;;;;;3.93;1.10;;;;;;;;;;5051808;28;20036;-71
2021/05/23 11:41:38;;;;;;;4.10;1.05;;;;;;;;;;5057093;28;20286;-72
2021/05/23 11:44:07;;;;;;;3.25;0.80;;;;;;;;;;5053655;28;20029;-71
2021/05/23 11:46:33;;;;;;;3.67;1.05;;;;;;;;;;5059246;28;20012;-72
2021/05/23 11:48:59;;;;;;;2.90;0.77;;;;;;;;;;5071160;28;20029;-71
2021/05/23 11:51:27;;;;;;;4.85;0.77;;;;;;;;;;5071574;28;20486;-71
2021/05/23 11:53:54;;;;;;;1.88;0.60;;;;;;;;;;5064624;28;20032;-72
2021/05/23 11:56:27;;;;;;;2.92;0.88;;;;;;;;;;5056491;28;20138;-77
2021/05/23 11:58:54;;;;;;;6.20;1.95;;;;;;;;;;5073296;28;20111;-75
2021/05/23 12:01:29;;;;;;;6.57;1.00;;;;;;;;;;5072853;28;20029;-73
2021/05/23 12:03:58;;;;;;;3.67;0.90;;;;;;;;;;5070547;28;20497;-70
2021/05/23 12:06:25;;;;;;;4.15;1.20;;;;;;;;;;5059841;28;20028;-72
2021/05/23 12:08:51;;;;;;;5.22;1.40;;;;;;;;;;5072912;28;20056;-73
2021/05/23 12:11:17;;;;;;;7.15;1.33;;;;;;;;;;5068262;28;20032;-71
2021/05/23 12:13:44;;;;;;;4.40;1.00;;;;;;;;;;5070469;28;20032;-72
2021/05/23 12:16:12;;;;;;;5.43;0.90;;;;;;;;;;5061110;28;20083;-74
2021/05/23 12:18:42;;;;;;;5.32;2.30;;;;;;;;;;5058279;28;20021;-74
2021/05/23 12:21:10;;;;;;;3.90;1.00;;;;;;;;;;5061809;28;20056;-73
2021/05/23 12:23:36;;;;;;;3.03;1.00;;;;;;;;;;5063015;28;20048;-72
2021/05/23 12:26:08;;;;;;;4.22;1.13;;;;;;;;;;5062293;28;20033;-71
2021/05/23 12:28:55;;;;;;;1.77;0.70;;;;;;;;;;5063022;28;20024;-72
2021/05/23 12:31:22;;;;;;;3.00;0.98;;;;;;;;;;5059397;28;20565;-72
2021/05/23 12:33:50;;;;;;;4.03;1.00;;;;;;;;;;5054061;28;20053;-81
2021/05/23 12:36:16;;;;;;;3.10;1.00;;;;;;;;;;5052579;28;20025;-73
2021/05/23 12:38:53;;;;;;;5.53;1.08;;;;;;;;;;5053638;28;20025;-78
2021/05/23 12:41:19;;;;;;;5.78;1.45;;;;;;;;;;5054324;28;20029;-77
2021/05/23 12:43:46;;;;;;;2.67;0.90;;;;;;;;;;5053535;28;20432;-75
2021/05/23 12:46:15;;;;;;;6.18;1.33;;;;;;;;;;5053320;28;20029;-76
2021/05/23 12:48:43;;;;;;;3.70;0.82;;;;;;;;;;5052440;28;20379;-77
2021/05/23 12:51:36;;;;;;;5.95;1.30;;;;;;;;;;5054270;28;20487;-75
2021/05/23 12:54:02;;;;;;;3.22;1.00;;;;;;;;;;5053843;28;20079;-71
2021/05/23 12:56:35;;;;;;;4.78;1.15;;;;;;;;;;5058215;28;20055;-74
2021/05/23 12:59:03;;;;;;;3.60;1.15;;;;;;;;;;5065140;28;20078;-73
2021/05/23 13:01:29;;;;;;;3.25;0.57;;;;;;;;;;5054304;28;20110;-74
2021/05/23 13:03:59;;;;;;;3.33;0.70;;;;;;;;;;5059024;28;20040;-73
2021/05/23 13:06:56;;;;;;;2.92;0.95;;;;;;;;;;5065562;28;20164;-72
2021/05/23 13:09:23;;;;;;;4.75;0.77;;;;;;;;;;5048001;28;20029;-70
2021/05/23 13:11:54;;;;;;;1.90;0.93;;;;;;;;;;5053205;28;20040;-70
2021/05/23 13:14:21;;;;;;;1.75;0.77;;;;;;;;;;5056010;28;20021;-73
2021/05/23 13:16:51;;;;;;;2.88;0.88;;;;;;;;;;5058763;28;20025;-75
2021/05/23 13:19:18;;;;;;;1.50;0.80;;;;;;;;;;5067807;28;20028;-71
2021/05/23 13:21:44;;;;;;;2.97;0.63;;;;;;;;;;5071249;28;20474;-70
2021/05/23 13:24:11;;;;;;;2.20;0.80;;;;;;;;;;5058479;28;20025;-71
2021/05/23 13:26:47;;;;;;;4.18;0.73;;;;;;;;;;5067432;28;20067;-71
2021/05/23 13:29:14;;;;;;;4.47;0.88;;;;;;;;;;5061252;28;20024;-74
2021/05/23 13:31:40;;;;;;;2.25;0.82;;;;;;;;;;5061797;28;20033;-76
2021/05/23 13:34:06;;;;;;;3.47;0.60;;;;;;;;;;5060306;28;20029;-77
2021/05/23 13:36:33;;;;;;;5.28;0.90;;;;;;;;;;5075506;28;20432;-74
2021/05/23 13:38:59;;;;;;;4.13;1.13;;;;;;;;;;5056098;28;20032;-75
2021/05/23 13:41:27;;;;;;;3.08;0.82;;;;;;;;;;5049370;28;20386;-74
2021/05/23 13:43:53;;;;;;;2.53;0.70;;;;;;;;;;5066367;28;20647;-73
2021/05/23 13:46:20;;;;;;;4.00;1.10;;;;;;;;;;5066439;28;20403;-73
2021/05/23 13:48:46;;;;;;;5.05;1.00;;;;;;;;;;5051404;28;20580;-73
2021/05/23 13:51:13;;;;;;;2.13;0.90;;;;;;;;;;5050747;28;20025;-75
2021/05/23 13:53:39;;;;;;;3.83;0.80;;;;;;;;;;5051042;28;20035;-75
2021/05/23 13:56:06;;;;;;;3.28;0.90;;;;;;;;;;5050734;28;20036;-72
2021/05/23 13:58:32;;;;;;;4.97;1.45;;;;;;;;;;5051800;28;20025;-74
2021/05/23 14:00:59;;;;;;;5.00;1.05;;;;;;;;;;5050462;28;20013;-80
2021/05/23 14:03:25;;;;;;;2.60;0.85;;;;;;;;;;5056876;28;20131;-77
2021/05/23 14:05:53;;;;;;;4.88;1.00;;;;;;;;;;5070752;28;20097;-73
2021/05/23 14:08:21;;;;;;;7.13;1.30;;;;;;;;;;5050186;28;20055;-73
2021/05/23 14:10:48;;;;;;;3.97;1.05;;;;;;;;;;5056728;28;20401;-75
2021/05/23 14:13:14;;;;;;;5.70;1.48;;;;;;;;;;5056987;28;20501;-73
2021/05/23 14:15:41;;;;;;;3.58;1.45;;;;;;;;;;5050763;28;20027;-76
2021/05/23 14:18:07;;;;;;;3.55;1.42;;;;;;;;;;5049024;28;20025;-74
2021/05/23 14:20:34;;;;;;;2.72;1.40;;;;;;;;;;5051232;28;20029;-82
2021/05/23 14:23:02;;;;;;;3.05;1.20;;;;;;;;;;5050401;28;20025;-78
2021/05/23 14:25:28;;;;;;;4.10;1.50;;;;;;;;;;5051382;28;20063;-78
2021/05/23 14:27:55;;;;;;;3.67;1.30;;;;;;;;;;5057979;28;20033;-78
2021/05/23 14:30:21;;;;;;;3.30;1.50;;;;;;;;;;5069720;28;20036;-76
2021/05/23 14:32:49;;;;;;;6.72;1.70;;;;;;;;;;5071828;28;20039;-77
2021/05/23 14:35:16;;;;;;;6.53;1.58;;;;;;;;;;5071443;28;20065;-80
2021/05/23 14:37:43;;;;;;;3.22;1.27;;;;;;;;;;5052393;28;20036;-76
2021/05/23 14:40:10;;;;;;;2.25;1.25;;;;;;;;;;5058591;28;20021;-72
2021/05/23 14:42:36;;;;;;;4.22;1.30;;;;;;;;;;5050719;28;20056;-73
2021/05/23 14:45:03;;;;;;;2.65;1.15;;;;;;;;;;5051180;28;20025;-72